Time;durP1;ratioP1;P1;durP2;ratioP2;P2;SDS_P1;SDS_P2;PMS_P1;PMS_P2;Temp;Humidity;BMP_temperature;BMP_pressure;BME280_temperature;BME280_humidity;BME280_pressure;Samples;Min_cycle;Max_cycle;Signal;HPM_P1;HPM_P2
2024/04/03 00:01:22;;;;;;;;;1.00;1.00;;;;;10.80;73.79;99186.22;6327816;20;1803511;-46
2024/04/03 00:03:48;;;;;;;;;3.00;1.50;;;;;10.66;73.96;99179.97;6312232;20;2735706;-45
2024/04/03 00:06:16;;;;;;;;;1.00;1.00;;;;;10.63;74.71;99180.19;6294128;20;1808803;-47
2024/04/03 00:08:42;;;;;;;;;2.00;2.00;;;;;10.57;74.46;99175.25;6307964;20;2752359;-45
2024/04/03 00:11:09;;;;;;;;;3.00;1.25;;;;;10.30;77.08;99184.25;6293981;20;1822313;-45
2024/04/03 00:13:36;;;;;;;;;2.00;2.00;;;;;10.21;76.92;99181.28;6309705;20;2755621;-45
2024/04/03 00:16:03;;;;;;;;;2.50;2.50;;;;;10.17;78.01;99186.00;6279940;20;2733612;-45
2024/04/03 00:18:30;;;;;;;;;1.00;1.00;;;;;10.00;78.56;99180.91;6325340;20;1800527;-45
2024/04/03 00:21:03;;;;;;;;;2.25;1.00;;;;;9.88;79.83;99180.78;6326565;20;1805652;-45
2024/04/03 00:23:32;;;;;;;;;2.00;2.00;;;;;9.98;79.65;99183.72;6326590;20;1813997;-45
2024/04/03 00:26:01;;;;;;;;;1.00;1.00;;;;;9.92;80.19;99177.91;6325006;20;1809859;-45
2024/04/03 00:28:30;;;;;;;;;1.00;1.00;;;;;9.59;81.64;99176.50;6325459;20;1802465;-46
2024/04/03 00:31:01;;;;;;;;;2.00;2.00;;;;;9.67;81.42;99179.53;6311138;20;2452505;-46
2024/04/03 00:33:28;;;;;;;;;3.00;3.00;;;;;9.65;82.16;99176.94;6308046;20;2748269;-46
2024/04/03 00:36:00;;;;;;;;;3.00;2.00;;;;;9.69;81.46;99183.00;6291451;20;1816107;-45
2024/04/03 00:38:28;;;;;;;;;2.00;2.00;;;;;9.67;80.97;99182.22;6324276;20;1809778;-45
2024/04/03 00:41:00;;;;;;;;;2.50;2.50;;;;;9.72;81.67;99187.28;6324224;20;1817119;-45
2024/04/03 00:43:29;;;;;;;;;3.00;2.00;;;;;9.68;81.46;99183.94;6326711;20;1811822;-45
2024/04/03 00:45:59;;;;;;;;;1.50;1.50;;;;;9.65;81.50;99186.81;6324518;20;1809735;-45
2024/04/03 00:48:30;;;;;;;;;1.00;1.00;;;;;9.45;83.49;99182.75;6325054;20;1800313;-45
2024/04/03 00:51:00;;;;;;;;;2.25;1.00;;;;;9.61;82.11;99185.28;6326394;20;1803405;-46
2024/04/03 00:53:29;;;;;;;;;1.00;1.00;;;;;9.45;82.06;99186.31;6329572;20;1809762;-45
2024/04/03 00:55:57;;;;;;;;;1.00;1.00;;;;;9.43;83.14;99188.22;6324967;20;1804470;-46
2024/04/03 00:58:24;;;;;;;;;1.00;1.00;;;;;9.50;82.17;99195.84;6324813;20;1803065;-45
2024/04/03 01:00:52;;;;;;;;;1.00;1.00;;;;;9.45;82.15;99191.66;6324471;20;1807610;-45
2024/04/03 01:03:19;;;;;;;;;0.50;0.00;;;;;9.16;84.43;99195.34;6325940;20;1806572;-45
2024/04/03 01:05:46;;;;;;;;;1.00;1.00;;;;;9.00;85.86;99185.63;6324568;20;1807602;-47
2024/04/03 01:08:14;;;;;;;;;0.25;0.25;;;;;9.21;84.06;99183.38;6323612;20;1805581;-45
2024/04/03 01:10:41;;;;;;;;;1.25;1.25;;;;;9.12;85.04;99183.13;6325572;20;1805548;-44
2024/04/03 01:13:08;;;;;;;;;1.00;1.00;;;;;9.02;86.19;99182.84;6324225;20;1800064;-45
2024/04/03 01:15:36;;;;;;;;;2.00;2.00;;;;;9.07;86.25;99177.19;6323367;20;1813911;-45
2024/04/03 01:18:03;;;;;;;;;2.00;2.00;;;;;9.18;86.69;99178.22;6324674;20;1811802;-45
2024/04/03 01:20:30;;;;;;;;;2.67;2.67;;;;;8.82;88.83;99181.44;6328434;20;1814053;-47
2024/04/03 01:22:58;;;;;;;;;1.75;1.75;;;;;8.82;89.65;99180.53;6323945;20;1816037;-46
2024/04/03 01:25:24;;;;;;;;;4.00;3.00;;;;;8.95;88.61;99177.03;6305981;20;2751463;-45
2024/04/03 01:27:52;;;;;;;;;3.00;2.00;;;;;8.98;89.79;99171.47;6292713;20;1807602;-45
2024/04/03 01:30:19;;;;;;;;;3.00;3.00;;;;;8.88;90.26;99175.69;6324308;20;1815018;-46
2024/04/03 01:32:45;;;;;;;;;3.00;3.00;;;;;8.99;90.16;99167.81;6308051;20;2733686;-45
2024/04/03 01:35:12;;;;;;;;;3.50;3.50;;;;;8.81;90.55;99168.97;6307017;20;2741937;-45
2024/04/03 01:37:38;;;;;;;;;2.50;2.00;;;;;8.96;90.28;99167.16;6309036;20;2746104;-45
2024/04/03 01:40:06;;;;;;;;;2.50;2.00;;;;;8.84;91.82;99174.13;6275425;20;2755654;-45
2024/04/03 01:42:33;;;;;;;;;4.00;2.00;;;;;8.84;91.50;99168.78;6277170;20;2741966;-46
2024/04/03 01:44:59;;;;;;;;;2.50;2.00;;;;;8.87;90.84;99173.09;6276826;20;2752514;-46
2024/04/03 01:47:26;;;;;;;;;2.50;2.50;;;;;8.78;90.76;99174.53;6276690;20;2746181;-45
2024/04/03 01:49:54;;;;;;;;;4.00;4.00;;;;;8.97;91.34;99176.91;6274694;20;2754437;-45
2024/04/03 01:52:21;;;;;;;;;4.00;4.00;;;;;8.98;91.18;99175.97;6273134;20;2751331;-45
2024/04/03 01:54:49;;;;;;;;;5.75;3.50;;;;;8.70;94.06;99171.47;6291288;20;1817063;-46
2024/04/03 01:57:16;;;;;;;;;2.00;2.00;;;;;8.59;94.17;99180.16;6324116;20;1816000;-45
2024/04/03 01:59:43;;;;;;;;;5.00;5.00;;;;;8.63;94.92;99176.34;6305420;20;2749383;-48
2024/04/03 02:02:10;;;;;;;;;4.00;4.00;;;;;8.55;95.19;99168.78;6287637;20;1808751;-45
2024/04/03 02:04:37;;;;;;;;;5.00;5.00;;;;;8.41;97.50;99163.44;6306368;20;2743068;-46
2024/04/03 02:07:03;;;;;;;;;4.50;4.00;;;;;8.42;97.49;99167.81;6304739;20;2757089;-46
2024/04/03 02:09:30;;;;;;;;;6.00;6.00;;;;;8.62;96.01;99176.44;6271293;20;2748311;-46
2024/04/03 02:11:57;;;;;;;;;6.00;5.00;;;;;8.60;98.04;99170.31;6273561;20;2743019;-46
2024/04/03 02:14:23;;;;;;;;;5.00;5.00;;;;;8.29;99.12;99172.16;6303646;20;2748203;-45
2024/04/03 02:16:50;;;;;;;;;4.00;4.00;;;;;8.63;97.20;99164.78;6323717;20;1812972;-47
2024/04/03 02:19:17;;;;;;;;;5.00;5.00;;;;;8.20;100.00;99172.72;6305647;20;2745207;-46
2024/04/03 02:21:44;;;;;;;;;5.00;5.00;;;;;8.24;100.00;99168.88;6292846;20;1818563;-45
2024/04/03 02:24:11;;;;;;;;;5.00;4.00;;;;;8.37;100.00;99169.88;6304736;20;2756607;-45
2024/04/03 02:26:38;;;;;;;;;7.75;5.00;;;;;8.31;100.00;99171.09;6291370;20;1813016;-45
2024/04/03 02:29:05;;;;;;;;;6.00;4.50;;;;;8.30;100.00;99164.06;6304858;20;2751414;-45
2024/04/03 02:31:31;;;;;;;;;3.50;3.50;;;;;8.23;100.00;99161.84;6274808;20;2750282;-46
2024/04/03 02:33:58;;;;;;;;;4.00;2.00;;;;;8.05;100.00;99167.31;6274123;20;2747226;-47
2024/04/03 02:36:25;;;;;;;;;3.00;3.00;;;;;8.24;100.00;99163.53;6322649;20;1811852;-46
2024/04/03 02:38:53;;;;;;;;;4.75;4.00;;;;;8.32;100.00;99155.91;6320365;20;1821686;-49
2024/04/03 02:41:20;;;;;;;;;4.00;4.00;;;;;8.25;100.00;99162.59;6323668;20;1819758;-47
2024/04/03 02:43:47;;;;;;;;;3.00;3.00;;;;;8.04;100.00;99168.28;6322939;20;1808652;-46
2024/04/03 02:46:14;;;;;;;;;3.00;3.00;;;;;8.01;100.00;99168.47;6306223;20;2743103;-45
2024/04/03 02:48:41;;;;;;;;;3.50;3.50;;;;;8.11;100.00;99164.31;6320357;20;1822287;-48
2024/04/03 02:51:12;;;;;;;;;3.75;3.75;;;;;7.96;100.00;99157.19;6322201;20;1818121;-47
2024/04/03 02:53:39;;;;;;;;;3.00;3.00;;;;;8.02;100.00;99159.50;6321609;20;1809127;-45
2024/04/03 02:56:08;;;;;;;;;3.00;3.00;;;;;7.92;100.00;99166.34;6304597;20;2750311;-45
2024/04/03 02:58:37;;;;;;;;;4.00;3.00;;;;;8.08;100.00;99180.53;6289783;20;1813927;-45
2024/04/03 03:01:07;;;;;;;;;3.00;3.00;;;;;8.01;100.00;99163.13;6323546;20;1814974;-46
2024/04/03 03:03:35;;;;;;;;;4.00;2.00;;;;;7.79;100.00;99165.34;6306008;20;2750292;-47
2024/04/03 03:06:05;;;;;;;;;4.75;2.00;;;;;7.91;100.00;99172.63;6289506;20;1816041;-46
2024/04/03 03:08:34;;;;;;;;;2.00;2.00;;;;;8.09;100.00;99160.84;6305310;20;2748371;-45
2024/04/03 03:11:04;;;;;;;;;3.00;2.00;;;;;7.87;100.00;99155.03;6290052;20;1815857;-44
2024/04/03 03:13:32;;;;;;;;;3.00;2.00;;;;;7.76;100.00;99160.16;6319559;20;1821452;-46
2024/04/03 03:16:02;;;;;;;;;2.00;2.00;;;;;7.94;100.00;99158.22;6322825;20;1820293;-47
2024/04/03 03:18:32;;;;;;;;;3.00;3.00;;;;;7.70;100.00;99159.56;6320798;20;1818107;-46
2024/04/03 03:21:00;;;;;;;;;3.00;2.25;;;;;7.73;100.00;99163.03;6321384;20;1809695;-46
2024/04/03 03:23:27;;;;;;;;;2.25;2.25;;;;;7.48;100.00;99170.66;6322415;20;1816010;-47
2024/04/03 03:25:55;;;;;;;;;3.00;3.00;;;;;7.44;100.00;99173.59;6321507;20;1825978;-45
2024/04/03 03:28:22;;;;;;;;;3.00;3.00;;;;;7.45;100.00;99175.28;6320000;20;1807640;-45
2024/04/03 03:30:51;;;;;;;;;2.00;2.00;;;;;7.44;100.00;99162.91;6305129;20;2750301;-45
2024/04/03 03:33:19;;;;;;;;;3.00;2.00;;;;;7.55;100.00;99171.16;6289214;20;1814713;-46
2024/04/03 03:35:55;;;;;;;;;4.00;3.00;;;;;7.65;100.00;99172.34;6320894;20;1822314;-46
2024/04/03 03:38:23;;;;;;;;;3.00;3.00;;;;;7.41;100.00;99163.06;6319142;20;1822334;-46
2024/04/03 03:40:51;;;;;;;;;2.75;2.75;;;;;7.71;100.00;99171.13;6320507;20;1818254;-45
2024/04/03 03:43:19;;;;;;;;;2.00;2.00;;;;;7.74;100.00;99170.09;6303733;20;2756525;-45
2024/04/03 03:45:49;;;;;;;;;3.00;2.00;;;;;7.39;100.00;99181.00;6288544;20;1818117;-45
2024/04/03 03:48:20;;;;;;;;;3.00;2.00;;;;;6.90;100.00;99163.25;6319742;20;1815968;-45
2024/04/03 03:53:34;;;;;;;;;2.75;2.75;;;;;6.62;100.00;99174.53;6327104;20;1816043;-45
2024/04/03 03:56:08;;;;;;;;;2.50;2.50;;;;;6.51;100.00;99176.94;6309322;20;2752368;-45
2024/04/03 03:58:36;;;;;;;;;5.50;3.25;;;;;6.48;100.00;99175.28;6294051;20;1812825;-45
2024/04/03 04:01:05;;;;;;;;;2.00;2.00;;;;;6.47;100.00;99178.03;6326301;20;1811838;-45
2024/04/03 04:03:32;;;;;;;;;3.25;2.00;;;;;6.45;100.00;99187.91;6324978;20;1822260;-46
2024/04/03 04:06:00;;;;;;;;;2.00;2.00;;;;;6.14;100.00;99185.03;6324786;20;1823365;-45
2024/04/03 04:08:28;;;;;;;;;2.00;2.00;;;;;6.17;100.00;99184.03;6324880;20;1815990;-46
2024/04/03 04:10:56;;;;;;;;;2.33;2.33;;;;;6.37;100.00;99180.31;6309474;20;3464880;-46
2024/04/03 04:13:23;;;;;;;;;3.25;2.50;;;;;6.31;100.00;99175.31;6290584;20;1803472;-46
2024/04/03 04:15:52;;;;;;;;;3.00;3.00;;;;;6.68;100.00;99178.69;6326201;20;1812903;-46
2024/04/03 04:18:19;;;;;;;;;3.00;3.00;;;;;6.65;100.00;99189.53;6324800;20;1812908;-45
2024/04/03 04:20:55;;;;;;;;;8.00;3.00;;;;;6.11;100.00;99189.69;6327502;20;1818070;-47
2024/04/03 04:23:24;;;;;;;;;3.00;3.00;;;;;6.10;100.00;99177.28;6324138;20;1822359;-46
2024/04/03 04:26:02;;;;;;;;;3.00;3.00;;;;;6.11;100.00;99181.69;6308691;20;3449347;-45
2024/04/03 04:28:30;;;;;;;;;3.00;3.00;;;;;6.30;100.00;99182.44;6324972;20;1825904;-46
2024/04/03 04:31:03;;;;;;;;;3.00;3.00;;;;;6.05;100.00;99179.31;6311469;20;2729511;-46
2024/04/03 04:33:37;;;;;;;;;3.00;3.00;;;;;6.18;100.00;99184.88;6325570;20;1813837;-46
2024/04/03 04:36:05;;;;;;;;;0.50;0.50;;;;;7.01;100.00;99195.53;6324879;20;1810733;-46
2024/04/03 04:38:32;;;;;;;;;5.75;3.25;;;;;7.48;100.00;99196.50;6323707;20;1815022;-45
2024/04/03 04:41:03;;;;;;;;;4.00;4.00;;;;;7.63;100.00;99198.28;6307643;20;2752484;-47
2024/04/03 04:43:32;;;;;;;;;4.25;4.25;;;;;7.81;100.00;99182.16;6291947;20;1810847;-46
2024/04/03 04:46:04;;;;;;;;;4.25;4.25;;;;;7.95;100.00;99195.56;6325454;20;1815412;-49
2024/04/03 04:48:33;;;;;;;;;4.75;3.00;;;;;8.10;100.00;99194.66;6324986;20;1817121;-46
2024/04/03 04:51:02;;;;;;;;;4.00;4.00;;;;;8.25;100.00;99195.56;6326240;20;1824376;-46
2024/04/03 04:53:30;;;;;;;;;5.50;4.25;;;;;8.33;100.00;99195.09;6324216;20;1817069;-45
2024/04/03 04:56:05;;;;;;;;;6.00;4.00;;;;;8.88;100.00;99190.88;6306891;20;2755022;-46
2024/04/03 04:58:32;;;;;;;;;4.00;4.00;;;;;9.58;100.00;99188.16;6275887;20;2748208;-45
2024/04/03 05:01:09;;;;;;;;;4.00;3.00;;;;;8.95;100.00;99200.22;6277649;20;2737838;-45
2024/04/03 05:03:36;;;;;;;;;5.00;4.00;;;;;9.02;100.00;99202.44;6306898;20;2756608;-45
2024/04/03 05:06:04;;;;;;;;;4.50;4.50;;;;;9.20;100.00;99203.09;6274356;20;2756496;-45
2024/04/03 05:08:33;;;;;;;;;2.00;2.00;;;;;9.78;100.00;99192.22;6278768;20;2735747;-45
2024/04/03 05:10:59;;;;;;;;;5.00;3.00;;;;;10.70;97.38;99192.22;6306669;20;2750809;-46
2024/04/03 05:13:34;;;;;;;;;5.00;3.50;;;;;10.02;100.00;99185.22;6277026;20;2745119;-47
2024/04/03 05:16:12;;;;;;;;;6.50;6.50;;;;;9.81;100.00;99190.19;6275047;20;2744162;-46
2024/04/03 05:18:42;;;;;;;;;3.00;3.00;;;;;9.75;100.00;99195.97;6277358;20;2747279;-45
2024/04/03 05:21:09;;;;;;;;;4.75;4.00;;;;;9.75;100.00;99195.13;6292851;20;1809779;-46
2024/04/03 05:23:35;;;;;;;;;5.50;4.50;;;;;9.81;100.00;99198.25;6309731;20;2745150;-45
2024/04/03 05:26:07;;;;;;;;;4.50;4.00;;;;;10.84;98.67;99201.13;6277306;20;2749290;-46
2024/04/03 05:28:35;;;;;;;;;3.00;3.00;;;;;10.97;96.34;99199.28;6273810;20;2744034;-47
2024/04/03 05:31:18;;;;;;;;;5.50;4.25;;;;;11.03;90.05;99198.84;6292320;20;1813904;-50
2024/04/03 05:33:46;;;;;;;;;5.00;4.00;;;;;10.36;98.42;99204.44;6308196;20;2744059;-52
2024/04/03 05:36:12;;;;;;;;;4.50;4.50;;;;;10.13;100.00;99202.41;6308298;20;2741914;-48
2024/04/03 05:38:40;;;;;;;;;5.50;4.00;;;;;10.55;100.00;99209.38;6272926;20;2732598;-50
2024/04/03 05:41:08;;;;;;;;;5.00;5.00;;;;;10.70;96.45;99208.31;6309387;20;2745115;-47
2024/04/03 05:43:35;;;;;;;;;5.50;5.00;;;;;10.92;97.18;99207.66;6278019;20;2748198;-47
2024/04/03 05:46:02;;;;;;;;;5.00;5.00;;;;;10.84;93.83;99203.81;6307978;20;2744106;-48
2024/04/03 05:48:29;;;;;;;;;6.00;6.00;;;;;11.29;93.93;99196.97;6305604;20;2734686;-48
2024/04/03 05:51:05;;;;;;;;;10.00;8.00;;;;;11.99;83.64;99200.84;6306803;20;2766157;-50
2024/04/03 05:53:33;;;;;;;;;11.00;11.00;;;;;12.16;88.25;99202.25;6272841;20;2784635;-47
2024/04/03 05:56:03;;;;;;;;;8.00;8.00;;;;;16.37;66.39;99219.84;6277575;20;2750285;-48
2024/04/03 05:58:30;;;;;;;;;6.50;5.00;;;;;16.34;63.46;99225.56;6274874;20;2752382;-47
2024/04/03 06:00:59;;;;;;;;;6.50;6.00;;;;;16.56;59.90;99228.97;6277095;20;2731572;-47
2024/04/03 06:03:26;;;;;;;;;2.00;2.00;;;;;16.32;60.42;99230.25;6275607;20;2739903;-45
2024/04/03 06:05:55;;;;;;;;;3.00;3.00;;;;;17.18;57.45;99229.47;6278292;20;2744025;-47
2024/04/03 06:08:23;;;;;;;;;5.00;5.00;;;;;14.20;68.94;99215.63;6276986;20;2746121;-49
2024/04/03 06:10:51;;;;;;;;;4.00;4.00;;;;;12.62;81.03;99233.75;6276591;20;2756551;-45
2024/04/03 06:13:18;;;;;;;;;4.50;4.50;;;;;12.37;84.68;99235.59;6278571;20;2741989;-46
2024/04/03 06:15:46;;;;;;;;;4.00;4.00;;;;;12.49;83.37;99233.81;6274196;20;2736736;-49
2024/04/03 06:18:13;;;;;;;;;5.00;5.00;;;;;11.91;89.29;99232.84;6275016;20;2745168;-45
2024/04/03 06:20:40;;;;;;;;;4.50;4.50;;;;;11.79;90.65;99232.72;6277743;20;2733608;-45
2024/04/03 06:23:12;;;;;;;;;4.00;4.00;;;;;11.49;93.41;99227.78;6276186;20;2743056;-47
2024/04/03 06:25:39;;;;;;;;;6.00;6.00;;;;;11.58;94.96;99239.69;6274593;20;2739895;-47
2024/04/03 06:28:06;;;;;;;;;3.00;3.00;;;;;11.74;93.01;99236.75;6275286;20;2737792;-45
2024/04/03 06:30:33;;;;;;;;;5.00;5.00;;;;;12.04;90.60;99233.66;6275103;20;2754444;-45
2024/04/03 06:32:59;;;;;;;;;7.00;6.00;;;;;12.04;91.39;99228.28;6277479;20;2735126;-46
2024/04/03 06:35:26;;;;;;;;;7.50;6.00;;;;;12.12;91.23;99236.63;6272323;20;2750291;-44
2024/04/03 06:37:52;;;;;;;;;5.00;5.00;;;;;12.15;89.81;99232.84;6281617;20;2612858;-46
2024/04/03 06:40:19;;;;;;;;;6.00;6.00;;;;;12.61;88.31;99240.97;6273769;20;2732583;-46
2024/04/03 06:42:45;;;;;;;;;4.00;3.00;;;;;12.81;86.36;99250.19;6276764;20;2743017;-47
2024/04/03 06:45:12;;;;;;;;;5.00;5.00;;;;;12.85;84.62;99240.91;6274888;20;2752477;-45
2024/04/03 06:47:39;;;;;;;;;4.00;4.00;;;;;13.28;82.80;99240.22;6279978;20;2740916;-45
2024/04/03 06:50:06;;;;;;;;;4.00;4.00;;;;;13.28;84.14;99237.53;6274588;20;2751330;-45
2024/04/03 06:52:32;;;;;;;;;5.50;4.00;;;;;13.19;82.00;99232.81;6276819;20;2747180;-46
2024/04/03 06:54:59;;;;;;;;;6.00;5.00;;;;;13.81;77.90;99240.41;6269760;20;2745207;-45
2024/04/03 06:57:25;;;;;;;;;4.50;4.50;;;;;14.23;76.67;99245.91;6274215;20;2747623;-46
2024/04/03 06:59:52;;;;;;;;;5.00;3.00;;;;;13.35;79.19;99244.16;6271032;20;2754543;-45
2024/04/03 07:02:18;;;;;;;;;3.00;3.00;;;;;14.22;74.86;99243.38;6275151;20;2739895;-46
2024/04/03 07:04:45;;;;;;;;;5.00;3.50;;;;;13.26;77.76;99249.38;6272730;20;2747313;-46
2024/04/03 07:07:11;;;;;;;;;3.00;3.00;;;;;14.96;72.19;99256.88;6273106;20;2741987;-46
2024/04/03 07:09:38;;;;;;;;;4.00;4.00;;;;;14.93;71.38;99255.31;6270265;20;2754588;-45
2024/04/03 07:12:05;;;;;;;;;3.00;3.00;;;;;15.12;70.51;99249.16;6269753;20;2748290;-47
2024/04/03 07:14:32;;;;;;;;;2.00;2.00;;;;;16.20;67.27;99253.09;6274440;20;2731554;-46
2024/04/03 07:16:58;;;;;;;;;2.50;2.50;;;;;15.57;65.94;99254.19;6272620;20;2748243;-48
2024/04/03 07:19:25;;;;;;;;;3.00;3.00;;;;;14.80;67.77;99243.00;6271176;20;2731638;-50
2024/04/03 07:21:52;;;;;;;;;2.00;2.00;;;;;15.33;66.81;99250.97;6270721;20;2753402;-50
2024/04/03 07:24:18;;;;;;;;;3.00;3.00;;;;;15.77;65.19;99248.84;6275605;20;2741995;-49
2024/04/03 07:26:46;;;;;;;;;3.00;2.50;;;;;16.82;60.90;99251.81;6269657;20;2743027;-46
2024/04/03 07:29:14;;;;;;;;;2.00;2.00;;;;;16.51;59.51;99242.09;6279707;20;2739882;-47
2024/04/03 07:31:41;;;;;;;;;2.00;2.00;;;;;17.11;56.37;99242.75;6276915;20;2745069;-47
2024/04/03 07:34:08;;;;;;;;;2.00;2.00;;;;;16.21;58.54;99246.66;6279412;20;2741995;-52
2024/04/03 07:36:35;;;;;;;;;2.00;2.00;;;;;16.26;59.30;99244.38;6278785;20;2733640;-52
2024/04/03 07:39:02;;;;;;;;;1.50;1.50;;;;;17.00;56.60;99249.22;6278804;20;2732605;-49
2024/04/03 07:41:32;;;;;;;;;2.00;2.00;;;;;16.87;56.58;99254.94;6288028;20;2747252;-47
2024/04/03 07:43:59;;;;;;;;;1.00;1.00;;;;;17.13;55.11;99259.75;6281965;20;2727400;-49
2024/04/03 07:46:26;;;;;;;;;1.00;1.00;;;;;16.26;54.66;99266.06;6280690;20;2717088;-50
2024/04/03 07:48:53;;;;;;;;;1.00;1.00;;;;;16.86;55.69;99264.09;6282720;20;2723221;-47
2024/04/03 07:51:19;;;;;;;;;3.00;2.00;;;;;17.07;53.81;99271.19;6283466;20;2746699;-48
2024/04/03 07:53:46;;;;;;;;;1.50;1.50;;;;;17.25;53.37;99269.44;6286095;20;2729525;-49
2024/04/03 07:56:13;;;;;;;;;1.00;1.00;;;;;17.03;53.50;99269.75;6283846;20;2726313;-50
2024/04/03 07:58:41;;;;;;;;;1.00;1.00;;;;;17.28;52.37;99269.13;6283827;20;2727371;-49
2024/04/03 08:01:08;;;;;;;;;1.00;1.00;;;;;17.08;51.37;99275.59;6285036;20;2730555;-49
2024/04/03 08:03:37;;;;;;;;;0.50;0.50;;;;;17.20;51.07;99274.44;6284726;20;2731598;-48
2024/04/03 08:06:05;;;;;;;;;1.00;1.00;;;;;17.05;52.45;99282.16;6285911;20;2721132;-52
2024/04/03 08:08:32;;;;;;;;;1.00;1.00;;;;;16.49;52.75;99277.50;6294720;20;2727376;-46
2024/04/03 08:11:00;;;;;;;;;1.00;1.00;;;;;17.42;50.90;99280.50;6286111;20;2727412;-47
2024/04/03 08:13:27;;;;;;;;;0.00;0.00;;;;;17.23;50.31;99286.84;6285093;20;2727431;-47
2024/04/03 08:16:06;;;;;;;;;0.00;0.00;;;;;17.01;52.06;99283.47;6285034;20;2727400;-49
2024/04/03 08:18:33;;;;;;;;;0.50;0.50;;;;;17.21;50.07;99295.13;6281901;20;2733613;-47
2024/04/03 08:21:06;;;;;;;;;0.00;0.00;;;;;17.14;48.35;99285.00;6283998;20;2731548;-47
2024/04/03 08:23:34;;;;;;;;;0.00;0.00;;;;;17.01;47.51;99288.91;6282784;20;2735678;-47
2024/04/03 08:26:06;;;;;;;;;0.00;0.00;;;;;17.61;47.09;99291.28;6286255;20;2723210;-47
2024/04/03 08:28:39;;;;;;;;;0.00;0.00;;;;;16.98;46.53;99289.19;6282926;20;2730572;-49
2024/04/03 08:31:17;;;;;;;;;0.00;0.00;;;;;17.24;47.88;99305.69;6285529;20;2731524;-50
2024/04/03 08:33:45;;;;;;;;;0.00;0.00;;;;;17.51;46.46;99288.63;6283796;20;2735825;-48
2024/04/03 08:36:12;;;;;;;;;0.00;0.00;;;;;17.67;46.41;99290.72;6285841;20;2733680;-50
2024/04/03 08:38:38;;;;;;;;;1.00;1.00;;;;;17.45;46.82;99293.78;6283130;20;2729537;-49
2024/04/03 08:41:05;;;;;;;;;0.50;0.50;;;;;17.64;46.76;99290.13;6285055;20;2729462;-47
2024/04/03 08:43:35;;;;;;;;;0.00;0.00;;;;;17.48;47.09;99285.34;6300000;20;1778488;-51
2024/04/03 08:46:01;;;;;;;;;0.00;0.00;;;;;17.85;46.62;99287.22;6314307;20;2733742;-47
2024/04/03 08:48:29;;;;;;;;;0.00;0.00;;;;;17.97;46.22;99277.84;6280805;20;2731571;-49
2024/04/03 08:50:57;;;;;;;;;0.00;0.00;;;;;18.09;45.17;99286.63;6283673;20;2729454;-50
2024/04/03 08:53:24;;;;;;;;;2.00;2.00;;;;;17.98;46.74;99287.72;6282492;20;2733690;-48
2024/04/03 08:55:55;;;;;;;;;1.00;1.00;;;;;18.43;46.42;99289.56;6283629;20;2735693;-47
2024/04/03 08:58:23;;;;;;;;;0.00;0.00;;;;;18.32;45.48;99292.50;6282951;20;2731614;-48
2024/04/03 09:00:50;;;;;;;;;0.00;0.00;;;;;18.09;44.84;99292.06;6286560;20;2727491;-46
2024/04/03 09:03:19;;;;;;;;;1.50;0.00;;;;;18.57;43.73;99283.59;6285784;20;2729475;-47
2024/04/03 09:05:47;;;;;;;;;0.00;0.00;;;;;18.31;44.35;99290.81;6283752;20;2728259;-46
2024/04/03 09:08:14;;;;;;;;;0.00;0.00;;;;;18.27;46.46;99297.53;6285777;20;2733624;-47
2024/04/03 09:10:54;;;;;;;;;0.00;0.00;;;;;18.12;48.09;99291.78;6286695;20;2727383;-46
2024/04/03 09:13:22;;;;;;;;;1.00;1.00;;;;;18.33;47.57;99288.81;6282414;20;2729542;-47
2024/04/03 09:15:53;;;;;;;;;1.00;0.00;;;;;18.52;46.76;99282.34;6285027;20;2733749;-47
2024/04/03 09:18:21;;;;;;;;;1.00;1.00;;;;;18.85;46.21;99291.66;6287375;20;2725324;-45
2024/04/03 09:20:51;;;;;;;;;1.00;1.00;;;;;17.64;48.43;99282.88;6286974;20;2731678;-48
2024/04/03 09:23:18;;;;;;;;;1.00;1.00;;;;;18.65;48.36;99286.38;6314348;20;2727919;-46
2024/04/03 09:25:45;;;;;;;;;1.00;0.00;;;;;18.61;46.11;99282.25;6286509;20;2727369;-46
2024/04/03 09:28:13;;;;;;;;;0.00;0.00;;;;;19.10;46.96;99279.13;6286584;20;2732590;-46
2024/04/03 09:30:49;;;;;;;;;1.00;1.00;;;;;19.20;45.89;99279.03;6286786;20;2731599;-46
2024/04/03 09:33:16;;;;;;;;;0.00;0.00;;;;;18.69;44.49;99281.47;6285758;20;2733632;-46
2024/04/03 09:35:44;;;;;;;;;0.00;0.00;;;;;18.77;45.96;99286.16;6284455;20;2735767;-48
2024/04/03 09:38:13;;;;;;;;;0.67;0.67;;;;;18.68;45.81;99276.22;6310595;20;2729474;-46
2024/04/03 09:40:41;;;;;;;;;1.00;1.00;;;;;18.99;45.48;99285.69;6312197;20;2722183;-46
2024/04/03 09:43:13;;;;;;;;;1.00;1.00;;;;;18.63;44.74;99266.66;6285249;20;2729574;-46
2024/04/03 09:45:41;;;;;;;;;1.00;1.00;;;;;19.02;43.12;99277.19;6286389;20;2723208;-46
2024/04/03 09:48:10;;;;;;;;;0.00;0.00;;;;;18.96;43.76;99272.41;6284270;20;2733676;-46
2024/04/03 09:50:43;;;;;;;;;0.00;0.00;;;;;19.15;41.41;99276.78;6310252;20;2735695;-45
2024/04/03 09:53:22;;;;;;;;;0.00;0.00;;;;;19.15;42.08;99279.50;6311864;20;2730512;-46
2024/04/03 09:55:52;;;;;;;;;0.00;0.00;;;;;19.28;41.34;99266.31;6312896;20;2733863;-45
2024/04/03 09:58:26;;;;;;;;;0.00;0.00;;;;;19.84;40.85;99263.22;6308327;20;2735842;-45
2024/04/03 10:01:00;;;;;;;;;0.00;0.00;;;;;19.37;39.89;99264.50;6310021;20;2730523;-46
2024/04/03 10:03:34;;;;;;;;;0.00;0.00;;;;;19.28;40.91;99265.47;6312191;20;2727382;-47
2024/04/03 10:06:10;;;;;;;;;0.00;0.00;;;;;20.14;39.92;99256.34;6309853;20;2723203;-47
2024/04/03 10:08:46;;;;;;;;;0.00;0.00;;;;;19.58;41.17;99261.38;6311347;20;2735815;-45
2024/04/03 10:11:16;;;;;;;;;0.00;0.00;;;;;19.47;42.08;99262.50;6311186;20;2725299;-46
2024/04/03 10:13:44;;;;;;;;;0.00;0.00;;;;;19.12;40.78;99258.06;6311067;20;2727404;-48
2024/04/03 10:16:14;;;;;;;;;0.00;0.00;;;;;19.62;40.80;99257.31;6310763;20;2735802;-46
2024/04/03 10:18:53;;;;;;;;;0.00;0.00;;;;;19.88;40.58;99254.56;6308706;20;2730563;-47
2024/04/03 10:21:20;;;;;;;;;0.00;0.00;;;;;19.74;40.36;99252.47;6311793;20;2726450;-47
2024/04/03 10:23:50;;;;;;;;;0.00;0.00;;;;;19.78;40.15;99247.56;6310494;20;2728482;-46
2024/04/03 10:26:22;;;;;;;;;0.00;0.00;;;;;19.16;41.32;99250.41;6308750;20;2721247;-46
2024/04/03 10:28:49;;;;;;;;;1.00;1.00;;;;;19.68;41.16;99251.25;6309202;20;2727479;-46
2024/04/03 10:31:20;;;;;;;;;0.00;0.00;;;;;19.53;41.16;99248.25;6312544;20;2729472;-46
2024/04/03 10:33:51;;;;;;;;;0.00;0.00;;;;;19.70;40.29;99248.38;6311867;20;2716993;-47
2024/04/03 10:36:19;;;;;;;;;0.00;0.00;;;;;19.71;38.36;99245.47;6308930;20;2729562;-47
2024/04/03 10:38:46;;;;;;;;;0.00;0.00;;;;;19.46;39.38;99244.47;6309436;20;2727420;-45
2024/04/03 10:41:14;;;;;;;;;0.00;0.00;;;;;20.25;38.32;99247.88;6312696;20;2727357;-45
2024/04/03 10:43:41;;;;;;;;;0.00;0.00;;;;;19.74;37.61;99238.84;6310769;20;2733650;-45
2024/04/03 10:46:13;;;;;;;;;0.00;0.00;;;;;19.89;39.30;99237.19;6307717;20;2735739;-45
2024/04/03 10:48:42;;;;;;;;;0.00;0.00;;;;;19.60;38.96;99245.72;6309012;20;2735745;-45
2024/04/03 10:51:10;;;;;;;;;0.00;0.00;;;;;19.66;39.40;99236.06;6309784;20;2730543;-45
2024/04/03 10:53:37;;;;;;;;;0.00;0.00;;;;;20.26;39.80;99238.66;6308190;20;2729469;-45
2024/04/03 10:56:05;;;;;;;;;0.00;0.00;;;;;19.61;38.44;99235.69;6307359;20;2727362;-46
2024/04/03 10:58:32;;;;;;;;;0.00;0.00;;;;;20.44;38.28;99226.75;6308341;20;2735762;-47
2024/04/03 11:01:00;;;;;;;;;0.00;0.00;;;;;19.74;38.48;99236.13;6309111;20;2727945;-46
2024/04/03 11:03:27;;;;;;;;;0.00;0.00;;;;;19.20;38.92;99222.72;6313854;20;2729589;-46
2024/04/03 11:05:54;;;;;;;;;0.00;0.00;;;;;19.58;39.57;99219.69;6314779;20;2726354;-47
2024/04/03 11:08:21;;;;;;;;;0.00;0.00;;;;;20.11;38.49;99219.34;6314510;20;2733690;-46
2024/04/03 11:10:48;;;;;;;;;0.00;0.00;;;;;20.23;37.89;99211.72;6313558;20;2735753;-46
2024/04/03 11:13:18;;;;;;;;;2.00;0.00;;;;;20.81;37.80;99216.22;6314429;20;2730542;-46
2024/04/03 11:15:53;;;;;;;;;0.00;0.00;;;;;20.51;36.50;99215.00;6328403;20;1782679;-47
2024/04/03 11:18:20;;;;;;;;;1.00;0.00;;;;;19.74;37.03;99214.31;6315374;20;2724371;-46
2024/04/03 11:20:48;;;;;;;;;0.00;0.00;;;;;20.00;37.12;99205.22;6314230;20;2731568;-45
2024/04/03 11:23:15;;;;;;;;;0.00;0.00;;;;;20.49;36.81;99199.84;6314173;20;2727392;-47
2024/04/03 11:25:43;;;;;;;;;1.00;0.00;;;;;21.06;36.83;99197.06;6315804;20;2441981;-45
2024/04/03 11:28:12;;;;;;;;;0.00;0.00;;;;;20.25;36.59;99201.50;6314158;20;2731679;-46